Huvudsida
METAR-TAF:

METAR-TAF

Flygplatser :

Ushuaia Aerodrome

Ushuaia, Argentina

latitud: 54-48S, longitud: 068-19W, höjd: 16 m

Aktuellt väderrapport

Denna rapport gjordes för 36 minuter sedan, klockan 12:00 UTC
Vind 4 kt från nord/nordväst
Temperatur 3°C
Fuktighet 87%
Tryck 1019 hPa
Sikt 10 km eller mer
Inga moln under 1 500 m eller inga cumulonimbus

METAR: SAWH 251200Z 34004KT CAVOK 03/01 Q1019

Tid: 09:36 (12:36 UTC)

Väderprognos

Denna rapport gjordes för 1 timme och 36 minuter sedan, klockan 11:00 UTC
Prognos gäller från 25 kl. 12 UTC till 26 kl. 12 UTC
Vind 10 kt från nord/nordväst
Sikt 10 km eller mer
Inga moln under 1 500 m eller inga cumulonimbus
Blir
från 26 kl. 00 UTC till 26 kl. 02 UTC
Spridda moln på en höjd av 2500 ft
Sannolikhet 30%
från 26 kl. 09 UTC till 26 kl. 12 UTC
Sikt 10 km eller mer
regn

TAF: SAWH 251100Z 2512/2612 34010KT CAVOK TX11/2518Z TN03/2512Z BECMG 2600/2602 SCT025 PROB30 2609/2612 9999 RA

Aktuella väderrapporter och prognoser från 4000 flygplatser (METAR- och TAF-rapporter).

De tillgängliga stationerna syns som gula och röda prickar på kartan.

För musen över prickarna för att se namnen på stationerna.

Klicka sedan för att få väderrapporter och prognoser.

För att ändra kartan: Klicka på de gröna knapparna med ett svart kors på för att zooma in; den gröna knappen med ett streck på för att zooma ut; eller på de gröna pilarna för angränsande kartor.


METAR-TAF: